ADDS METAR Data INFO
IDs: Format: Raw Decoded Include TAF

Data at: 1115 UTC 21 Feb 2018

KVAY 201454Z AUTO 23011G16KT 10SM OVC007 13/12 A3037 RMK AO2 SLP283 T01330122 51009
KVAY 201421Z AUTO 23011KT 9SM OVC006 13/12 A3037 RMK AO2 T01280122
KVAY 201354Z AUTO 23009KT 6SM BR OVC005 13/12 A3036 RMK AO2 SLP280 T01280122
KVAY 201340Z AUTO 23008KT 6SM BR OVC005 12/12 A3036 RMK AO2 T01220122
KVAY 201308Z AUTO 23008KT 3SM BR OVC003 12/12 A3036 RMK AO2 T01220122
KVAY 201254Z AUTO 25006KT 2 1/2SM BR OVC003 12/12 A3036 RMK AO2 SLP280 T01220122 $
KVAY 201206Z AUTO 23006KT 2SM BR OVC003 12/12 A3035 RMK AO2 T01220122 $
KVAY 201154Z AUTO 23007KT 3SM BR OVC003 13/13 A3034 RMK AO2 SLP273 T01280128 10128 20122 53009 $
KVAY 201136Z AUTO 23006KT 3SM BR OVC003 12/12 A3033 RMK AO2 T01220122 $
KVAY 201054Z AUTO 23007KT 2SM BR OVC003 13/13 A3032 RMK AO2 SLP268 T01280128 $
KVAY 201032Z AUTO 23006KT 2SM BR OVC003 12/12 A3032 RMK AO2 T01220122 $
KVAY 201019Z AUTO 22006KT 3SM BR OVC003 12/12 A3031 RMK AO2 T01220122 $
KVAY 200954Z AUTO 22005KT 2SM BR OVC004 12/12 A3031 RMK AO2 SLP264 T01220122 $
KVAY 200949Z AUTO 23006KT 2SM BR OVC004 12/12 A3031 RMK AO2 $
KVAY 200932Z AUTO 21005KT 7SM OVC005 12/12 A3031 RMK AO2 T01220117 $
KVAY 200854Z AUTO 23006KT 10SM OVC006 12/12 A3030 RMK AO2 SLP261 T01220117 58006 $
KVAY 200754Z AUTO 23007KT 10SM OVC008 12/12 A3031 RMK AO2 SLP265 T01220117 $
KVAY 200654Z AUTO 24005KT 10SM OVC007 12/12 A3033 RMK AO2 SLP270 T01220117 $
KVAY 200627Z AUTO 23007KT 10SM OVC006 12/12 A3032 RMK AO2 T01220117 $
KVAY 200554Z AUTO VRB03KT 7SM OVC005 12/12 A3032 RMK AO2 SLP267 T01220117 10122 20100 56004 $
KVAY 200547Z AUTO 21003KT 8SM OVC005 12/12 A3032 RMK AO2 T01220117 $
KVAY 200454Z AUTO 22005KT 9SM OVC006 12/12 A3032 RMK AO2 SLP268 T01220122 401221022 $
KVAY 200452Z AUTO 21003KT 9SM OVC006 12/12 A3032 RMK AO2 $
KVAY 200431Z AUTO 22005KT 8SM OVC005 12/12 A3033 RMK AO2 T01220122 $
KVAY 200354Z AUTO 21005KT 4SM BR OVC003 12/12 A3033 RMK AO2 SLP272 T01170117 $
KVAY 200330Z AUTO 21005KT 3SM BR OVC003 12/12 A3035 RMK AO2 T01170117 $
KVAY 200309Z AUTO 00000KT 2 1/2SM BR OVC003 12/12 A3034 RMK AO2 T01170117 $
KVAY 200254Z AUTO 00000KT 3SM BR OVC004 12/12 A3034 RMK AO2 SLP272 T01170117 56004 $
KVAY 200249Z AUTO 00000KT 3SM BR OVC004 12/12 A3034 RMK AO2 $
KVAY 200235Z AUTO VRB03KT 5SM BR OVC005 12/11 A3034 RMK AO2 T01170111 $
KVAY 200154Z AUTO 20003KT 10SM OVC007 12/11 A3034 RMK AO2 SLP274 T01170106 $
KVAY 200113Z AUTO 17004KT 10SM OVC009 11/10 A3033 RMK AO2 T01110100 $
KVAY 200054Z AUTO 20003KT 10SM OVC011 11/09 A3035 RMK AO2 SLP276 T01110094 $
KVAY 200005Z AUTO 00000KT 10SM OVC014 11/08 A3036 RMK AO2 T01060083 $
KVAY 192354Z AUTO 00000KT 10SM OVC015 11/08 A3036 RMK AO2 SLP282 60000 T01060083 10111 20094 55005 $